Royal Romance — ZGCE4 — position and weather

sailwx.info

Track history (hours):
 
Tides and Currents Weather Stations Pressure Air Temp Water Temp Dewpoint Dewpoint Depression Visibility Wind Speed Wind Dir Waves Ship Positions

Royal Romance

Last reported at 2017-Oct-26 14:23 UTC. Time now 2017-Dec-15 18:07 UTC.
Position N 43°44' E 007°26'.
Warning: this ship's position is 50 days out of date.

Length 93 m; draft 3.7 m.

Type: Pleasure craft. MMSI: 319084100.

Date/timePositionNaut miles runAvg speedWind from/ knotsBaromVisibWave heightAir tempDewpointWater temp
2017-Oct-26 14:23N 43°44' E 007°26'0 0.0
2017-Oct-26 13:08N 43°44' E 007°26'0 0.0
2017-Oct-26 05:47N 43°44' E 007°26'0 0.0
2017-Oct-26 05:20N 43°44' E 007°26'0 0.0
2017-Oct-26 02:32N 43°44' E 007°26'0 0.0
2017-Oct-26 02:14N 43°44' E 007°26'0 0.0
2017-Oct-25 18:35N 43°44' E 007°26'0 0.0
2017-Oct-25 18:05N 43°44' E 007°26'0 0.0
2017-Oct-25 17:59N 43°44' E 007°26'0 0.0
2017-Oct-25 17:29N 43°44' E 007°26'0 0.0
2017-Oct-25 16:59N 43°44' E 007°26'0 0.0
2017-Oct-25 16:23N 43°44' E 007°26'0 0.0
2017-Oct-25 15:53N 43°44' E 007°26'0 0.0
2017-Oct-25 15:29N 43°44' E 007°26'0 0.0
2017-Oct-25 14:44N 43°44' E 007°26'0 0.0
2017-Oct-25 14:23N 43°44' E 007°26'0 0.0
2017-Oct-25 13:53N 43°44' E 007°26'0 0.0
2017-Oct-25 12:29N 43°44' E 007°26'0 0.0
2017-Oct-25 11:53N 43°44' E 007°26'0 0.0
2017-Oct-25 11:23N 43°44' E 007°26'0 0.0
2017-Oct-25 09:29N 43°44' E 007°26'0 0.0
2017-Oct-25 08:56N 43°44' E 007°26'0 0.0
2017-Oct-25 08:29N 43°44' E 007°26'0 0.0
2017-Oct-25 07:59N 43°44' E 007°26'0 0.0
2017-Oct-25 07:26N 43°44' E 007°26'0 0.0
2017-Oct-25 06:53N 43°44' E 007°26'0 0.0
2017-Oct-25 05:29N 43°44' E 007°26'0 0.0
2017-Oct-25 04:59N 43°44' E 007°26'0 0.0
2017-Oct-25 01:47N 43°44' E 007°26'0 0.0
2017-Oct-25 01:29N 43°44' E 007°26'0 0.0
2017-Oct-25 00:59N 43°44' E 007°26'0 0.0
2017-Oct-25 00:29N 43°44' E 007°26'0 0.0
2017-Oct-24 23:56N 43°44' E 007°26'0 0.0
2017-Oct-24 15:29N 43°44' E 007°26'22 2.1
2017-Oct-24 05:15N 43°41' E 007°55'311.0
2017-Oct-24 04:59N 43°40' E 007°59'510.8
2017-Oct-24 04:30N 43°39' E 008°06'611.0
2017-Oct-24 04:00N 43°38' E 008°14'1011.0
2017-Oct-24 03:03N 43°35' E 008°27'111.2
2017-Oct-24 03:00N 43°35' E 008°28'611.8
2017-Oct-24 02:30N 43°33' E 008°36'612.0
2017-Oct-24 02:00N 43°31' E 008°44'711.7
2017-Oct-24 01:27N 43°28' E 008°52'511.4
2017-Oct-24 01:00N 43°27' E 008°59'611.3
2017-Oct-24 00:30N 43°25' E 009°06'611.5
2017-Oct-24 00:00N 43°24' E 009°14'711.7
2017-Oct-23 23:26N 43°22' E 009°22'511.8
2017-Oct-23 23:00N 43°20' E 009°29'611.7
2017-Oct-23 22:30N 43°18' E 009°37'611.5
2017-Oct-23 22:00N 43°17' E 009°44'611.4
2017-Oct-23 21:30N 43°15' E 009°52'611.3
2017-Oct-23 21:00N 43°14' E 009°59'611.2
2017-Oct-23 20:30N 43°12' E 010°07'611.3
2017-Oct-23 19:56N 43°09' E 010°15'512.0
2017-Oct-23 19:30N 43°05' E 010°18'711.9
2017-Oct-23 18:55N 42°59' E 010°23'1311.2
2017-Oct-23 17:47N 42°47' E 010°28'312.2
2017-Oct-23 17:31N 42°43' E 010°28'6 0.4
2017-Oct-23 01:04N 42°45' E 010°20'212 9.6
2017-Oct-22 02:53N 40°12' E 013°36'1013.8
2017-Oct-22 02:08N 40°04' E 013°44'213.9
2017-Oct-22 02:00N 40°03' E 013°46'713.8
2017-Oct-22 01:30N 39°58' E 013°52'713.8
2017-Oct-22 01:01N 39°52' E 013°58'8113.6
2017-Oct-21 19:03N 38°51' E 015°06'213.6
2017-Oct-21 18:56N 38°50' E 015°07'713.4
2017-Oct-21 18:26N 38°45' E 015°13'613.4
2017-Oct-21 17:59N 38°40' E 015°18'713.6
2017-Oct-21 17:30N 38°35' E 015°23'713.6
2017-Oct-21 17:00N 38°30' E 015°29'713.4
2017-Oct-21 16:30N 38°25' E 015°34'713.1
2017-Oct-21 16:00N 38°20' E 015°39'5 9.6
2017-Oct-21 15:30N 38°15' E 015°39'713.5
2017-Oct-21 15:00N 38°08' E 015°37'1312.4
2017-Oct-21 13:58N 37°56' E 015°41'425 8.2
2017-Oct-19 10:04N 44°57' E 014°30'715.2
2017-Oct-19 09:39N 45°03' E 014°26'214.2
2017-Oct-19 09:29N 45°05' E 014°24'714.1
2017-Oct-19 08:58N 45°13' E 014°24'  
Track history (hours):
 
Tides and Currents Weather Stations Pressure Air Temp Water Temp Dewpoint Dewpoint Depression Visibility Wind Speed Wind Dir Waves Ship Positions

Royal Romance

Last reported at 2017-Oct-26 14:23 UTC. Time now 2017-Dec-15 18:07 UTC.
Position N 43°44' E 007°26'.
Warning: this ship's position is 50 days out of date.

Length 93 m; draft 3.7 m.

Type: Pleasure craft. MMSI: 319084100.

Date/timePositionNaut miles runAvg speedWind from/ knotsBaromVisibWave heightAir tempDewpointWater temp
2017-Oct-26 14:23N 43°44' E 007°26'0 0.0
2017-Oct-26 13:08N 43°44' E 007°26'0 0.0
2017-Oct-26 05:47N 43°44' E 007°26'0 0.0
2017-Oct-26 05:20N 43°44' E 007°26'0 0.0
2017-Oct-26 02:32N 43°44' E 007°26'0 0.0
2017-Oct-26 02:14N 43°44' E 007°26'0 0.0
2017-Oct-25 18:35N 43°44' E 007°26'0 0.0
2017-Oct-25 18:05N 43°44' E 007°26'0 0.0
2017-Oct-25 17:59N 43°44' E 007°26'0 0.0
2017-Oct-25 17:29N 43°44' E 007°26'0 0.0
2017-Oct-25 16:59N 43°44' E 007°26'0 0.0
2017-Oct-25 16:23N 43°44' E 007°26'0 0.0
2017-Oct-25 15:53N 43°44' E 007°26'0 0.0
2017-Oct-25 15:29N 43°44' E 007°26'0 0.0
2017-Oct-25 14:44N 43°44' E 007°26'0 0.0
2017-Oct-25 14:23N 43°44' E 007°26'0 0.0
2017-Oct-25 13:53N 43°44' E 007°26'0 0.0
2017-Oct-25 12:29N 43°44' E 007°26'0 0.0
2017-Oct-25 11:53N 43°44' E 007°26'0 0.0
2017-Oct-25 11:23N 43°44' E 007°26'0 0.0
2017-Oct-25 09:29N 43°44' E 007°26'0 0.0
2017-Oct-25 08:56N 43°44' E 007°26'0 0.0
2017-Oct-25 08:29N 43°44' E 007°26'0 0.0
2017-Oct-25 07:59N 43°44' E 007°26'0 0.0
2017-Oct-25 07:26N 43°44' E 007°26'0 0.0
2017-Oct-25 06:53N 43°44' E 007°26'0 0.0
2017-Oct-25 05:29N 43°44' E 007°26'0 0.0
2017-Oct-25 04:59N 43°44' E 007°26'0 0.0
2017-Oct-25 01:47N 43°44' E 007°26'0 0.0
2017-Oct-25 01:29N 43°44' E 007°26'0 0.0
2017-Oct-25 00:59N 43°44' E 007°26'0 0.0
2017-Oct-25 00:29N 43°44' E 007°26'0 0.0
2017-Oct-24 23:56N 43°44' E 007°26'0 0.0
2017-Oct-24 15:29N 43°44' E 007°26'22 2.1
2017-Oct-24 05:15N 43°41' E 007°55'311.0
2017-Oct-24 04:59N 43°40' E 007°59'510.8
2017-Oct-24 04:30N 43°39' E 008°06'611.0
2017-Oct-24 04:00N 43°38' E 008°14'1011.0
2017-Oct-24 03:03N 43°35' E 008°27'111.2
2017-Oct-24 03:00N 43°35' E 008°28'611.8
2017-Oct-24 02:30N 43°33' E 008°36'612.0
2017-Oct-24 02:00N 43°31' E 008°44'711.7
2017-Oct-24 01:27N 43°28' E 008°52'511.4
2017-Oct-24 01:00N 43°27' E 008°59'611.3
2017-Oct-24 00:30N 43°25' E 009°06'611.5
2017-Oct-24 00:00N 43°24' E 009°14'711.7
2017-Oct-23 23:26N 43°22' E 009°22'511.8
2017-Oct-23 23:00N 43°20' E 009°29'611.7
2017-Oct-23 22:30N 43°18' E 009°37'611.5
2017-Oct-23 22:00N 43°17' E 009°44'611.4
2017-Oct-23 21:30N 43°15' E 009°52'611.3
2017-Oct-23 21:00N 43°14' E 009°59'611.2
2017-Oct-23 20:30N 43°12' E 010°07'611.3
2017-Oct-23 19:56N 43°09' E 010°15'512.0
2017-Oct-23 19:30N 43°05' E 010°18'711.9
2017-Oct-23 18:55N 42°59' E 010°23'1311.2
2017-Oct-23 17:47N 42°47' E 010°28'312.2
2017-Oct-23 17:31N 42°43' E 010°28'6 0.4
2017-Oct-23 01:04N 42°45' E 010°20'212 9.6
2017-Oct-22 02:53N 40°12' E 013°36'1013.8
2017-Oct-22 02:08N 40°04' E 013°44'213.9
2017-Oct-22 02:00N 40°03' E 013°46'713.8
2017-Oct-22 01:30N 39°58' E 013°52'713.8
2017-Oct-22 01:01N 39°52' E 013°58'8113.6
2017-Oct-21 19:03N 38°51' E 015°06'213.6
2017-Oct-21 18:56N 38°50' E 015°07'713.4
2017-Oct-21 18:26N 38°45' E 015°13'613.4
2017-Oct-21 17:59N 38°40' E 015°18'713.6
2017-Oct-21 17:30N 38°35' E 015°23'713.6
2017-Oct-21 17:00N 38°30' E 015°29'713.4
2017-Oct-21 16:30N 38°25' E 015°34'713.1
2017-Oct-21 16:00N 38°20' E 015°39'5 9.6
2017-Oct-21 15:30N 38°15' E 015°39'713.5
2017-Oct-21 15:00N 38°08' E 015°37'1312.4
2017-Oct-21 13:58N 37°56' E 015°41'425 8.2
2017-Oct-19 10:04N 44°57' E 014°30'715.2
2017-Oct-19 09:39N 45°03' E 014°26'214.2
2017-Oct-19 09:29N 45°05' E 014°24'714.1
2017-Oct-19 08:58N 45°13' E 014°24'  

Dump ship's entire track history